sensor_id;sensor_type;location;lat;lon;timestamp;temperature;humidity
33207;DHT22;19565;46.602;11.534;2023-06-05T00:01:58;17.60;99.90
33207;DHT22;19565;46.602;11.534;2023-06-05T00:04:26;17.40;99.90
33207;DHT22;19565;46.602;11.534;2023-06-05T00:06:55;17.30;99.90
33207;DHT22;19565;46.602;11.534;2023-06-05T00:09:24;17.20;99.90
33207;DHT22;19565;46.602;11.534;2023-06-05T00:11:52;17.10;99.90
33207;DHT22;19565;46.602;11.534;2023-06-05T00:14:20;17.20;99.90
33207;DHT22;19565;46.602;11.534;2023-06-05T00:16:49;17.30;99.90
33207;DHT22;19565;46.602;11.534;2023-06-05T00:19:18;17.40;99.90
33207;DHT22;19565;46.602;11.534;2023-06-05T00:21:46;17.40;99.90
33207;DHT22;19565;46.602;11.534;2023-06-05T00:24:17;17.40;99.90
33207;DHT22;19565;46.602;11.534;2023-06-05T00:26:45;17.40;99.90
33207;DHT22;19565;46.602;11.534;2023-06-05T00:29:14;17.50;99.90
33207;DHT22;19565;46.602;11.534;2023-06-05T00:31:42;17.40;99.90
33207;DHT22;19565;46.602;11.534;2023-06-05T00:34:12;17.40;99.90
33207;DHT22;19565;46.602;11.534;2023-06-05T00:36:40;17.40;99.90
33207;DHT22;19565;46.602;11.534;2023-06-05T00:39:08;17.40;99.90
33207;DHT22;19565;46.602;11.534;2023-06-05T00:41:36;17.40;99.90
33207;DHT22;19565;46.602;11.534;2023-06-05T00:44:08;17.40;99.90
33207;DHT22;19565;46.602;11.534;2023-06-05T00:46:37;17.40;99.90
33207;DHT22;19565;46.602;11.534;2023-06-05T00:49:06;17.40;99.90
33207;DHT22;19565;46.602;11.534;2023-06-05T00:51:36;17.40;99.90
33207;DHT22;19565;46.602;11.534;2023-06-05T00:54:04;17.40;99.90
33207;DHT22;19565;46.602;11.534;2023-06-05T00:56:34;17.40;99.90
33207;DHT22;19565;46.602;11.534;2023-06-05T00:59:03;17.40;99.90
33207;DHT22;19565;46.602;11.534;2023-06-05T01:01:32;17.40;99.90
33207;DHT22;19565;46.602;11.534;2023-06-05T01:04:01;17.40;99.90
33207;DHT22;19565;46.602;11.534;2023-06-05T01:06:31;17.50;99.90
33207;DHT22;19565;46.602;11.534;2023-06-05T01:09:02;17.40;99.90
33207;DHT22;19565;46.602;11.534;2023-06-05T01:11:37;17.40;99.90
33207;DHT22;19565;46.602;11.534;2023-06-05T01:14:11;17.50;99.90
33207;DHT22;19565;46.602;11.534;2023-06-05T01:16:45;17.50;99.90
33207;DHT22;19565;46.602;11.534;2023-06-05T01:19:15;17.50;99.90
33207;DHT22;19565;46.602;11.534;2023-06-05T01:21:43;17.50;99.90
33207;DHT22;19565;46.602;11.534;2023-06-05T01:24:12;17.50;99.90
33207;DHT22;19565;46.602;11.534;2023-06-05T01:26:53;17.50;99.90
33207;DHT22;19565;46.602;11.534;2023-06-05T01:29:32;17.50;99.90
33207;DHT22;19565;46.602;11.534;2023-06-05T01:32:10;17.40;99.90
33207;DHT22;19565;46.602;11.534;2023-06-05T01:34:43;17.30;99.90
33207;DHT22;19565;46.602;11.534;2023-06-05T01:37:12;17.20;99.90
33207;DHT22;19565;46.602;11.534;2023-06-05T01:39:45;17.10;99.90
33207;DHT22;19565;46.602;11.534;2023-06-05T01:42:14;17.20;99.90
33207;DHT22;19565;46.602;11.534;2023-06-05T01:44:43;17.20;99.90
33207;DHT22;19565;46.602;11.534;2023-06-05T01:47:12;17.30;99.90
33207;DHT22;19565;46.602;11.534;2023-06-05T01:49:40;17.30;99.90
33207;DHT22;19565;46.602;11.534;2023-06-05T01:52:08;17.40;99.90
33207;DHT22;19565;46.602;11.534;2023-06-05T01:54:36;17.40;99.90
33207;DHT22;19565;46.602;11.534;2023-06-05T01:57:07;17.30;99.90
33207;DHT22;19565;46.602;11.534;2023-06-05T01:59:35;17.40;99.90
33207;DHT22;19565;46.602;11.534;2023-06-05T02:02:03;17.30;99.90
33207;DHT22;19565;46.602;11.534;2023-06-05T02:04:32;17.30;99.90
33207;DHT22;19565;46.602;11.534;2023-06-05T02:07:00;17.30;99.90
33207;DHT22;19565;46.602;11.534;2023-06-05T02:09:30;17.40;99.90
33207;DHT22;19565;46.602;11.534;2023-06-05T02:12:00;17.40;99.90
33207;DHT22;19565;46.602;11.534;2023-06-05T02:14:32;17.30;99.90
33207;DHT22;19565;46.602;11.534;2023-06-05T02:17:02;17.30;99.90
33207;DHT22;19565;46.602;11.534;2023-06-05T02:19:31;17.30;99.90
33207;DHT22;19565;46.602;11.534;2023-06-05T02:21:59;17.40;99.90
33207;DHT22;19565;46.602;11.534;2023-06-05T02:24:27;17.40;99.90
33207;DHT22;19565;46.602;11.534;2023-06-05T02:26:55;17.30;99.90
33207;DHT22;19565;46.602;11.534;2023-06-05T02:29:24;17.30;99.90
33207;DHT22;19565;46.602;11.534;2023-06-05T02:31:54;17.20;99.90
33207;DHT22;19565;46.602;11.534;2023-06-05T02:34:22;17.20;99.90
33207;DHT22;19565;46.602;11.534;2023-06-05T02:36:51;17.20;99.90
33207;DHT22;19565;46.602;11.534;2023-06-05T02:39:19;17.20;99.90
33207;DHT22;19565;46.602;11.534;2023-06-05T02:41:47;17.20;99.90
33207;DHT22;19565;46.602;11.534;2023-06-05T02:44:16;17.30;99.90
33207;DHT22;19565;46.602;11.534;2023-06-05T02:46:44;17.20;99.90
33207;DHT22;19565;46.602;11.534;2023-06-05T02:49:13;17.20;99.90
33207;DHT22;19565;46.602;11.534;2023-06-05T02:51:41;17.20;99.90
33207;DHT22;19565;46.602;11.534;2023-06-05T02:54:09;17.10;99.90
33207;DHT22;19565;46.602;11.534;2023-06-05T02:56:37;17.10;99.90
33207;DHT22;19565;46.602;11.534;2023-06-05T02:59:05;17.10;99.90
33207;DHT22;19565;46.602;11.534;2023-06-05T03:01:36;17.20;99.90
33207;DHT22;19565;46.602;11.534;2023-06-05T03:04:04;17.20;99.90
33207;DHT22;19565;46.602;11.534;2023-06-05T03:06:35;17.20;99.90
33207;DHT22;19565;46.602;11.534;2023-06-05T03:09:03;17.20;99.90
33207;DHT22;19565;46.602;11.534;2023-06-05T03:11:31;17.10;99.90
33207;DHT22;19565;46.602;11.534;2023-06-05T03:13:59;17.10;99.90
33207;DHT22;19565;46.602;11.534;2023-06-05T03:16:27;16.90;99.90
33207;DHT22;19565;46.602;11.534;2023-06-05T03:19:00;17.00;99.90
33207;DHT22;19565;46.602;11.534;2023-06-05T03:21:28;17.00;99.90
33207;DHT22;19565;46.602;11.534;2023-06-05T03:23:57;17.00;99.90
33207;DHT22;19565;46.602;11.534;2023-06-05T03:26:26;16.90;99.90
33207;DHT22;19565;46.602;11.534;2023-06-05T03:28:54;17.00;99.90
33207;DHT22;19565;46.602;11.534;2023-06-05T03:31:22;17.00;99.90
33207;DHT22;19565;46.602;11.534;2023-06-05T03:33:50;17.10;99.90
33207;DHT22;19565;46.602;11.534;2023-06-05T03:36:18;17.00;99.90
33207;DHT22;19565;46.602;11.534;2023-06-05T03:38:46;16.90;99.90
33207;DHT22;19565;46.602;11.534;2023-06-05T03:41:16;16.80;99.90
33207;DHT22;19565;46.602;11.534;2023-06-05T03:43:44;16.70;99.90
33207;DHT22;19565;46.602;11.534;2023-06-05T03:46:12;16.60;99.90
33207;DHT22;19565;46.602;11.534;2023-06-05T03:48:45;16.50;99.90
33207;DHT22;19565;46.602;11.534;2023-06-05T03:51:13;16.50;99.90
33207;DHT22;19565;46.602;11.534;2023-06-05T03:53:45;16.50;99.90
33207;DHT22;19565;46.602;11.534;2023-06-05T03:56:23;16.40;99.90
33207;DHT22;19565;46.602;11.534;2023-06-05T03:58:58;16.40;99.90
33207;DHT22;19565;46.602;11.534;2023-06-05T04:01:35;16.40;99.90
33207;DHT22;19565;46.602;11.534;2023-06-05T04:04:04;16.50;99.90
33207;DHT22;19565;46.602;11.534;2023-06-05T04:06:32;16.60;99.90
33207;DHT22;19565;46.602;11.534;2023-06-05T04:09:01;16.70;99.90
33207;DHT22;19565;46.602;11.534;2023-06-05T04:11:31;16.70;99.90
33207;DHT22;19565;46.602;11.534;2023-06-05T04:13:59;16.70;99.90
33207;DHT22;19565;46.602;11.534;2023-06-05T04:16:28;16.80;99.90
33207;DHT22;19565;46.602;11.534;2023-06-05T04:18:57;16.80;99.90
33207;DHT22;19565;46.602;11.534;2023-06-05T04:21:25;16.90;99.90
33207;DHT22;19565;46.602;11.534;2023-06-05T04:23:56;17.00;99.90
33207;DHT22;19565;46.602;11.534;2023-06-05T04:26:24;17.00;99.90
33207;DHT22;19565;46.602;11.534;2023-06-05T04:28:54;16.90;99.90
33207;DHT22;19565;46.602;11.534;2023-06-05T04:31:23;16.80;99.90
33207;DHT22;19565;46.602;11.534;2023-06-05T04:33:52;16.90;99.90
33207;DHT22;19565;46.602;11.534;2023-06-05T04:36:20;16.90;99.90
33207;DHT22;19565;46.602;11.534;2023-06-05T04:38:48;16.90;99.90
33207;DHT22;19565;46.602;11.534;2023-06-05T04:41:16;16.80;99.90
33207;DHT22;19565;46.602;11.534;2023-06-05T04:43:44;16.80;99.90
33207;DHT22;19565;46.602;11.534;2023-06-05T04:46:13;16.80;99.90
33207;DHT22;19565;46.602;11.534;2023-06-05T04:48:41;16.90;99.90
33207;DHT22;19565;46.602;11.534;2023-06-05T04:51:09;17.00;99.90
33207;DHT22;19565;46.602;11.534;2023-06-05T04:53:38;17.00;99.90
33207;DHT22;19565;46.602;11.534;2023-06-05T04:56:08;17.10;99.90
33207;DHT22;19565;46.602;11.534;2023-06-05T04:58:37;17.10;99.90
33207;DHT22;19565;46.602;11.534;2023-06-05T05:01:06;17.10;99.90
33207;DHT22;19565;46.602;11.534;2023-06-05T05:03:36;17.10;99.90
33207;DHT22;19565;46.602;11.534;2023-06-05T05:06:04;17.10;99.90
33207;DHT22;19565;46.602;11.534;2023-06-05T05:08:32;17.00;99.90
33207;DHT22;19565;46.602;11.534;2023-06-05T05:11:02;16.90;99.90
33207;DHT22;19565;46.602;11.534;2023-06-05T05:13:30;16.90;99.90
33207;DHT22;19565;46.602;11.534;2023-06-05T05:15:58;16.90;99.90
33207;DHT22;19565;46.602;11.534;2023-06-05T05:18:27;16.80;99.90
33207;DHT22;19565;46.602;11.534;2023-06-05T05:20:56;16.90;99.90
33207;DHT22;19565;46.602;11.534;2023-06-05T05:23:24;17.00;99.90
33207;DHT22;19565;46.602;11.534;2023-06-05T05:25:52;17.10;99.90
33207;DHT22;19565;46.602;11.534;2023-06-05T05:28:20;17.20;99.90
33207;DHT22;19565;46.602;11.534;2023-06-05T05:30:48;17.20;99.90
33207;DHT22;19565;46.602;11.534;2023-06-05T05:33:16;17.20;99.90
33207;DHT22;19565;46.602;11.534;2023-06-05T05:35:45;17.20;99.90
33207;DHT22;19565;46.602;11.534;2023-06-05T05:38:14;17.30;99.90
33207;DHT22;19565;46.602;11.534;2023-06-05T05:40:42;17.20;99.90
33207;DHT22;19565;46.602;11.534;2023-06-05T05:43:10;17.30;99.90
33207;DHT22;19565;46.602;11.534;2023-06-05T05:45:38;17.30;99.90
33207;DHT22;19565;46.602;11.534;2023-06-05T05:48:09;17.30;99.90
33207;DHT22;19565;46.602;11.534;2023-06-05T05:50:37;17.30;99.90
33207;DHT22;19565;46.602;11.534;2023-06-05T05:53:05;17.40;99.90
33207;DHT22;19565;46.602;11.534;2023-06-05T05:55:35;17.40;99.90
33207;DHT22;19565;46.602;11.534;2023-06-05T05:58:03;17.50;99.90
33207;DHT22;19565;46.602;11.534;2023-06-05T06:00:31;17.50;99.90
33207;DHT22;19565;46.602;11.534;2023-06-05T06:02:59;17.60;99.90
33207;DHT22;19565;46.602;11.534;2023-06-05T06:05:27;17.60;99.90
33207;DHT22;19565;46.602;11.534;2023-06-05T06:07:56;17.60;99.90
33207;DHT22;19565;46.602;11.534;2023-06-05T06:10:24;17.60;99.90
33207;DHT22;19565;46.602;11.534;2023-06-05T06:12:54;17.60;99.90
33207;DHT22;19565;46.602;11.534;2023-06-05T06:15:23;17.60;99.90
33207;DHT22;19565;46.602;11.534;2023-06-05T06:17:51;17.60;99.90
33207;DHT22;19565;46.602;11.534;2023-06-05T06:20:19;17.70;99.90
33207;DHT22;19565;46.602;11.534;2023-06-05T06:22:49;17.60;99.90
33207;DHT22;19565;46.602;11.534;2023-06-05T06:25:19;17.70;99.90
33207;DHT22;19565;46.602;11.534;2023-06-05T06:27:48;17.70;99.90
33207;DHT22;19565;46.602;11.534;2023-06-05T06:30:18;17.70;99.90
33207;DHT22;19565;46.602;11.534;2023-06-05T06:32:46;17.80;99.90
33207;DHT22;19565;46.602;11.534;2023-06-05T06:35:15;17.80;99.90
33207;DHT22;19565;46.602;11.534;2023-06-05T06:37:43;17.80;99.90
33207;DHT22;19565;46.602;11.534;2023-06-05T06:40:11;17.80;99.90
33207;DHT22;19565;46.602;11.534;2023-06-05T06:42:40;17.70;99.90
33207;DHT22;19565;46.602;11.534;2023-06-05T06:45:09;17.70;99.90
33207;DHT22;19565;46.602;11.534;2023-06-05T06:47:39;17.80;99.90
33207;DHT22;19565;46.602;11.534;2023-06-05T06:50:15;17.80;99.90
33207;DHT22;19565;46.602;11.534;2023-06-05T06:52:43;17.80;99.90
33207;DHT22;19565;46.602;11.534;2023-06-05T06:55:11;17.80;99.90
33207;DHT22;19565;46.602;11.534;2023-06-05T06:57:39;17.90;99.90
33207;DHT22;19565;46.602;11.534;2023-06-05T07:00:08;17.90;99.90
33207;DHT22;19565;46.602;11.534;2023-06-05T07:02:40;17.90;99.90
33207;DHT22;19565;46.602;11.534;2023-06-05T07:05:10;17.90;99.90
33207;DHT22;19565;46.602;11.534;2023-06-05T07:07:38;17.80;99.90
33207;DHT22;19565;46.602;11.534;2023-06-05T07:10:07;17.80;99.90
33207;DHT22;19565;46.602;11.534;2023-06-05T07:12:35;17.80;99.90
33207;DHT22;19565;46.602;11.534;2023-06-05T07:15:04;17.80;99.90
33207;DHT22;19565;46.602;11.534;2023-06-05T07:17:32;17.80;99.90
33207;DHT22;19565;46.602;11.534;2023-06-05T07:20:02;17.90;99.90
33207;DHT22;19565;46.602;11.534;2023-06-05T07:22:32;17.90;99.90
33207;DHT22;19565;46.602;11.534;2023-06-05T07:25:00;17.90;99.90
33207;DHT22;19565;46.602;11.534;2023-06-05T07:27:28;17.90;99.90
33207;DHT22;19565;46.602;11.534;2023-06-05T07:29:56;17.90;99.90
33207;DHT22;19565;46.602;11.534;2023-06-05T07:32:24;17.90;99.90
33207;DHT22;19565;46.602;11.534;2023-06-05T07:34:52;17.80;99.90
33207;DHT22;19565;46.602;11.534;2023-06-05T07:37:22;17.80;99.90
33207;DHT22;19565;46.602;11.534;2023-06-05T07:39:50;17.90;99.90
33207;DHT22;19565;46.602;11.534;2023-06-05T07:42:19;17.90;99.90
33207;DHT22;19565;46.602;11.534;2023-06-05T07:44:47;17.80;99.90
33207;DHT22;19565;46.602;11.534;2023-06-05T07:47:15;17.90;99.90
33207;DHT22;19565;46.602;11.534;2023-06-05T07:49:43;17.90;99.90
33207;DHT22;19565;46.602;11.534;2023-06-05T07:52:12;17.90;99.90
33207;DHT22;19565;46.602;11.534;2023-06-05T07:54:41;17.90;99.90
33207;DHT22;19565;46.602;11.534;2023-06-05T07:57:09;18.00;99.90
33207;DHT22;19565;46.602;11.534;2023-06-05T07:59:37;18.00;99.90
33207;DHT22;19565;46.602;11.534;2023-06-05T08:02:05;17.90;99.90
33207;DHT22;19565;46.602;11.534;2023-06-05T08:04:34;18.00;99.90
33207;DHT22;19565;46.602;11.534;2023-06-05T08:07:02;17.90;99.90
33207;DHT22;19565;46.602;11.534;2023-06-05T08:09:31;17.60;99.90
33207;DHT22;19565;46.602;11.534;2023-06-05T08:12:02;17.50;99.90
33207;DHT22;19565;46.602;11.534;2023-06-05T08:14:30;17.60;99.90
33207;DHT22;19565;46.602;11.534;2023-06-05T08:16:58;17.60;99.90
33207;DHT22;19565;46.602;11.534;2023-06-05T08:19:26;17.50;99.90
33207;DHT22;19565;46.602;11.534;2023-06-05T08:21:54;17.60;99.90
33207;DHT22;19565;46.602;11.534;2023-06-05T08:24:23;17.40;99.90
33207;DHT22;19565;46.602;11.534;2023-06-05T08:26:53;17.50;99.90
33207;DHT22;19565;46.602;11.534;2023-06-05T08:29:23;17.60;99.90
33207;DHT22;19565;46.602;11.534;2023-06-05T08:31:51;17.60;99.90
33207;DHT22;19565;46.602;11.534;2023-06-05T08:34:19;17.70;99.90
33207;DHT22;19565;46.602;11.534;2023-06-05T08:36:47;17.70;99.90
33207;DHT22;19565;46.602;11.534;2023-06-05T08:39:16;17.70;99.90
33207;DHT22;19565;46.602;11.534;2023-06-05T08:41:44;17.80;99.90
33207;DHT22;19565;46.602;11.534;2023-06-05T08:44:12;18.00;99.90
33207;DHT22;19565;46.602;11.534;2023-06-05T08:46:42;18.00;99.90
33207;DHT22;19565;46.602;11.534;2023-06-05T08:49:12;17.90;99.90
33207;DHT22;19565;46.602;11.534;2023-06-05T08:51:42;17.90;99.90
33207;DHT22;19565;46.602;11.534;2023-06-05T08:54:12;17.80;99.90
33207;DHT22;19565;46.602;11.534;2023-06-05T08:56:43;17.70;99.90
33207;DHT22;19565;46.602;11.534;2023-06-05T08:59:11;17.80;99.90
33207;DHT22;19565;46.602;11.534;2023-06-05T09:01:46;17.90;99.90
33207;DHT22;19565;46.602;11.534;2023-06-05T09:04:14;17.90;99.90
33207;DHT22;19565;46.602;11.534;2023-06-05T09:06:45;17.80;99.90
33207;DHT22;19565;46.602;11.534;2023-06-05T09:09:14;17.90;99.90
33207;DHT22;19565;46.602;11.534;2023-06-05T09:11:42;17.90;99.90
33207;DHT22;19565;46.602;11.534;2023-06-05T09:14:10;17.90;99.90
33207;DHT22;19565;46.602;11.534;2023-06-05T09:16:40;18.00;99.90
33207;DHT22;19565;46.602;11.534;2023-06-05T09:19:11;18.10;99.90
33207;DHT22;19565;46.602;11.534;2023-06-05T09:21:39;18.10;99.90
33207;DHT22;19565;46.602;11.534;2023-06-05T09:24:14;18.00;99.90
33207;DHT22;19565;46.602;11.534;2023-06-05T09:26:47;18.00;99.90
33207;DHT22;19565;46.602;11.534;2023-06-05T09:29:21;18.10;99.90
33207;DHT22;19565;46.602;11.534;2023-06-05T09:31:49;18.20;99.90
33207;DHT22;19565;46.602;11.534;2023-06-05T09:34:23;18.20;99.90
33207;DHT22;19565;46.602;11.534;2023-06-05T09:36:52;18.20;99.90
33207;DHT22;19565;46.602;11.534;2023-06-05T09:39:22;18.30;99.90
33207;DHT22;19565;46.602;11.534;2023-06-05T09:41:51;18.20;99.90
33207;DHT22;19565;46.602;11.534;2023-06-05T09:44:20;18.30;99.90
33207;DHT22;19565;46.602;11.534;2023-06-05T09:46:53;18.40;99.90
33207;DHT22;19565;46.602;11.534;2023-06-05T09:49:25;18.40;99.90
33207;DHT22;19565;46.602;11.534;2023-06-05T09:51:54;18.40;99.90
33207;DHT22;19565;46.602;11.534;2023-06-05T09:54:25;18.40;99.90
33207;DHT22;19565;46.602;11.534;2023-06-05T09:56:57;18.40;99.90
33207;DHT22;19565;46.602;11.534;2023-06-05T09:59:27;18.40;99.90
33207;DHT22;19565;46.602;11.534;2023-06-05T10:01:57;18.30;99.90
33207;DHT22;19565;46.602;11.534;2023-06-05T10:04:29;18.40;99.90
33207;DHT22;19565;46.602;11.534;2023-06-05T10:07:00;18.40;99.90
33207;DHT22;19565;46.602;11.534;2023-06-05T10:09:30;18.50;99.90
33207;DHT22;19565;46.602;11.534;2023-06-05T10:11:59;18.60;99.90
33207;DHT22;19565;46.602;11.534;2023-06-05T10:14:27;18.60;99.90
33207;DHT22;19565;46.602;11.534;2023-06-05T10:16:57;18.60;99.90
33207;DHT22;19565;46.602;11.534;2023-06-05T10:19:28;18.70;99.90
33207;DHT22;19565;46.602;11.534;2023-06-05T10:21:56;18.70;99.90
33207;DHT22;19565;46.602;11.534;2023-06-05T10:24:27;18.80;99.90
33207;DHT22;19565;46.602;11.534;2023-06-05T10:30:19;18.70;99.90
33207;DHT22;19565;46.602;11.534;2023-06-05T10:33:01;18.70;99.90
33207;DHT22;19565;46.602;11.534;2023-06-05T10:35:43;18.80;99.90
33207;DHT22;19565;46.602;11.534;2023-06-05T10:38:17;18.90;99.90
33207;DHT22;19565;46.602;11.534;2023-06-05T10:40:46;18.90;99.90
33207;DHT22;19565;46.602;11.534;2023-06-05T10:43:30;19.00;99.90
33207;DHT22;19565;46.602;11.534;2023-06-05T10:45:59;19.10;99.90
33207;DHT22;19565;46.602;11.534;2023-06-05T10:49:05;19.20;99.90
33207;DHT22;19565;46.602;11.534;2023-06-05T10:51:37;19.30;99.90
33207;DHT22;19565;46.602;11.534;2023-06-05T10:54:07;19.30;99.90
33207;DHT22;19565;46.602;11.534;2023-06-05T10:56:55;19.40;99.90
33207;DHT22;19565;46.602;11.534;2023-06-05T10:59:26;19.40;99.90
33207;DHT22;19565;46.602;11.534;2023-06-05T11:02:23;19.40;99.90
33207;DHT22;19565;46.602;11.534;2023-06-05T11:05:08;19.50;99.90
33207;DHT22;19565;46.602;11.534;2023-06-05T11:07:42;19.50;99.90
33207;DHT22;19565;46.602;11.534;2023-06-05T11:10:14;19.40;99.90
33207;DHT22;19565;46.602;11.534;2023-06-05T11:13:01;19.40;99.90
33207;DHT22;19565;46.602;11.534;2023-06-05T11:15:40;19.40;99.90
33207;DHT22;19565;46.602;11.534;2023-06-05T11:18:27;19.50;99.90
33207;DHT22;19565;46.602;11.534;2023-06-05T11:20:55;19.50;99.90
33207;DHT22;19565;46.602;11.534;2023-06-05T11:23:25;19.70;99.90
33207;DHT22;19565;46.602;11.534;2023-06-05T11:29:11;19.60;99.90
33207;DHT22;19565;46.602;11.534;2023-06-05T11:31:40;19.70;99.90
33207;DHT22;19565;46.602;11.534;2023-06-05T11:34:13;19.70;99.90
33207;DHT22;19565;46.602;11.534;2023-06-05T11:36:41;19.70;99.90
33207;DHT22;19565;46.602;11.534;2023-06-05T11:39:11;19.70;99.90
33207;DHT22;19565;46.602;11.534;2023-06-05T11:41:46;19.60;99.90
33207;DHT22;19565;46.602;11.534;2023-06-05T11:44:15;19.70;99.90
33207;DHT22;19565;46.602;11.534;2023-06-05T11:46:44;19.60;99.90
33207;DHT22;19565;46.602;11.534;2023-06-05T11:49:23;19.60;99.90
33207;DHT22;19565;46.602;11.534;2023-06-05T11:51:53;19.70;99.90
33207;DHT22;19565;46.602;11.534;2023-06-05T11:54:28;19.70;99.90
33207;DHT22;19565;46.602;11.534;2023-06-05T11:56:58;19.80;99.90
33207;DHT22;19565;46.602;11.534;2023-06-05T11:59:28;19.80;99.90
33207;DHT22;19565;46.602;11.534;2023-06-05T12:01:56;19.90;99.90
33207;DHT22;19565;46.602;11.534;2023-06-05T12:04:24;20.00;99.90
33207;DHT22;19565;46.602;11.534;2023-06-05T12:06:53;20.10;99.90
33207;DHT22;19565;46.602;11.534;2023-06-05T12:09:22;20.20;99.90
33207;DHT22;19565;46.602;11.534;2023-06-05T12:11:52;20.10;99.90
33207;DHT22;19565;46.602;11.534;2023-06-05T12:14:30;20.30;99.90
33207;DHT22;19565;46.602;11.534;2023-06-05T12:16:59;20.40;99.90
33207;DHT22;19565;46.602;11.534;2023-06-05T12:19:29;20.50;99.90
33207;DHT22;19565;46.602;11.534;2023-06-05T12:22:04;20.50;99.90
33207;DHT22;19565;46.602;11.534;2023-06-05T12:24:32;20.60;99.90
33207;DHT22;19565;46.602;11.534;2023-06-05T12:27:03;20.60;99.90
33207;DHT22;19565;46.602;11.534;2023-06-05T12:29:34;20.60;99.90
33207;DHT22;19565;46.602;11.534;2023-06-05T12:32:03;20.80;99.90
33207;DHT22;19565;46.602;11.534;2023-06-05T12:34:41;20.80;99.90
33207;DHT22;19565;46.602;11.534;2023-06-05T12:37:22;20.80;99.90
33207;DHT22;19565;46.602;11.534;2023-06-05T12:39:50;20.80;99.90
33207;DHT22;19565;46.602;11.534;2023-06-05T12:42:19;20.60;99.90
33207;DHT22;19565;46.602;11.534;2023-06-05T12:44:48;20.40;99.90
33207;DHT22;19565;46.602;11.534;2023-06-05T12:47:16;20.30;99.90
33207;DHT22;19565;46.602;11.534;2023-06-05T12:49:44;20.30;99.90
33207;DHT22;19565;46.602;11.534;2023-06-05T12:52:12;20.30;99.90
33207;DHT22;19565;46.602;11.534;2023-06-05T12:54:40;20.20;99.90
33207;DHT22;19565;46.602;11.534;2023-06-05T12:57:09;20.10;99.90
33207;DHT22;19565;46.602;11.534;2023-06-05T12:59:40;20.10;99.90
33207;DHT22;19565;46.602;11.534;2023-06-05T13:02:09;20.00;99.90
33207;DHT22;19565;46.602;11.534;2023-06-05T13:04:37;19.90;99.90
33207;DHT22;19565;46.602;11.534;2023-06-05T13:07:06;19.90;99.90
33207;DHT22;19565;46.602;11.534;2023-06-05T13:09:35;19.80;99.90
33207;DHT22;19565;46.602;11.534;2023-06-05T13:12:04;19.70;99.90
33207;DHT22;19565;46.602;11.534;2023-06-05T13:14:32;19.60;99.90
33207;DHT22;19565;46.602;11.534;2023-06-05T13:17:02;19.50;99.90
33207;DHT22;19565;46.602;11.534;2023-06-05T13:19:31;19.50;99.90
33207;DHT22;19565;46.602;11.534;2023-06-05T13:21:59;19.50;99.90
33207;DHT22;19565;46.602;11.534;2023-06-05T13:24:27;19.50;99.90
33207;DHT22;19565;46.602;11.534;2023-06-05T13:26:55;19.50;99.90
33207;DHT22;19565;46.602;11.534;2023-06-05T13:29:24;19.40;99.90
33207;DHT22;19565;46.602;11.534;2023-06-05T13:31:52;19.40;99.90
33207;DHT22;19565;46.602;11.534;2023-06-05T13:34:21;19.40;99.90
33207;DHT22;19565;46.602;11.534;2023-06-05T13:36:49;19.40;99.90
33207;DHT22;19565;46.602;11.534;2023-06-05T13:39:24;19.50;99.90
33207;DHT22;19565;46.602;11.534;2023-06-05T13:41:53;19.50;99.90
33207;DHT22;19565;46.602;11.534;2023-06-05T13:44:21;19.40;99.90
33207;DHT22;19565;46.602;11.534;2023-06-05T13:46:49;19.40;99.90
33207;DHT22;19565;46.602;11.534;2023-06-05T13:49:18;19.30;99.90
33207;DHT22;19565;46.602;11.534;2023-06-05T13:51:47;19.30;99.90
33207;DHT22;19565;46.602;11.534;2023-06-05T13:54:17;19.30;99.90
33207;DHT22;19565;46.602;11.534;2023-06-05T13:56:45;19.30;99.90
33207;DHT22;19565;46.602;11.534;2023-06-05T13:59:13;19.30;99.90
33207;DHT22;19565;46.602;11.534;2023-06-05T14:01:41;19.30;99.90
33207;DHT22;19565;46.602;11.534;2023-06-05T14:04:09;19.30;99.90
33207;DHT22;19565;46.602;11.534;2023-06-05T14:06:38;19.30;99.90
33207;DHT22;19565;46.602;11.534;2023-06-05T14:09:09;19.30;99.90
33207;DHT22;19565;46.602;11.534;2023-06-05T14:11:37;19.40;99.90
33207;DHT22;19565;46.602;11.534;2023-06-05T14:14:11;19.30;99.90
33207;DHT22;19565;46.602;11.534;2023-06-05T14:16:39;19.30;99.90
33207;DHT22;19565;46.602;11.534;2023-06-05T14:19:07;19.40;99.90
33207;DHT22;19565;46.602;11.534;2023-06-05T14:21:35;19.50;99.90
33207;DHT22;19565;46.602;11.534;2023-06-05T14:24:04;19.50;99.90
33207;DHT22;19565;46.602;11.534;2023-06-05T14:26:34;19.60;99.90
33207;DHT22;19565;46.602;11.534;2023-06-05T14:29:02;19.70;99.90
33207;DHT22;19565;46.602;11.534;2023-06-05T14:31:30;19.70;99.90
33207;DHT22;19565;46.602;11.534;2023-06-05T14:33:58;19.70;99.90
33207;DHT22;19565;46.602;11.534;2023-06-05T14:36:26;19.70;99.90
33207;DHT22;19565;46.602;11.534;2023-06-05T14:38:54;19.60;99.90
33207;DHT22;19565;46.602;11.534;2023-06-05T14:41:23;19.50;99.90
33207;DHT22;19565;46.602;11.534;2023-06-05T14:43:52;19.40;99.90
33207;DHT22;19565;46.602;11.534;2023-06-05T14:46:20;19.50;99.90
33207;DHT22;19565;46.602;11.534;2023-06-05T14:48:48;19.50;99.90
33207;DHT22;19565;46.602;11.534;2023-06-05T14:51:17;19.50;99.90
33207;DHT22;19565;46.602;11.534;2023-06-05T14:53:45;19.50;99.90
33207;DHT22;19565;46.602;11.534;2023-06-05T14:56:13;19.50;99.90
33207;DHT22;19565;46.602;11.534;2023-06-05T14:58:41;19.50;99.90
33207;DHT22;19565;46.602;11.534;2023-06-05T15:01:10;19.50;99.90
33207;DHT22;19565;46.602;11.534;2023-06-05T15:03:41;19.50;99.90
33207;DHT22;19565;46.602;11.534;2023-06-05T15:06:09;19.50;99.90
33207;DHT22;19565;46.602;11.534;2023-06-05T15:08:50;19.40;99.90
33207;DHT22;19565;46.602;11.534;2023-06-05T15:11:18;19.40;99.90
33207;DHT22;19565;46.602;11.534;2023-06-05T15:13:47;19.40;99.90
33207;DHT22;19565;46.602;11.534;2023-06-05T15:16:16;19.30;99.90
33207;DHT22;19565;46.602;11.534;2023-06-05T15:19:02;19.20;99.90
33207;DHT22;19565;46.602;11.534;2023-06-05T15:21:30;19.20;99.90
33207;DHT22;19565;46.602;11.534;2023-06-05T15:23:58;19.20;99.90
33207;DHT22;19565;46.602;11.534;2023-06-05T15:26:26;19.20;99.90
33207;DHT22;19565;46.602;11.534;2023-06-05T15:28:54;19.20;99.90
33207;DHT22;19565;46.602;11.534;2023-06-05T15:31:24;19.20;99.90
33207;DHT22;19565;46.602;11.534;2023-06-05T15:33:52;19.20;99.90
33207;DHT22;19565;46.602;11.534;2023-06-05T15:36:20;19.20;99.90
33207;DHT22;19565;46.602;11.534;2023-06-05T15:38:48;19.20;99.90